Time;durP1;ratioP1;P1;durP2;ratioP2;P2;SDS_P1;SDS_P2;PMS_P1;PMS_P2;Temp;Humidity;BMP_temperature;BMP_pressure;BME280_temperature;BME280_humidity;BME280_pressure;Samples;Min_cycle;Max_cycle;Signal;HPM_P1;HPM_P2
2024/03/31 00:00:35;;;;;;;1.50;1.10;;;9.70;98.20;;;;;;4920001;29;20473;-84
2024/03/31 00:03:05;;;;;;;1.50;1.20;;;9.70;98.20;;;;;;4911114;29;20520;-83
2024/03/31 00:05:30;;;;;;;1.50;1.10;;;9.70;98.20;;;;;;4921424;29;20539;-84
2024/03/31 00:07:57;;;;;;;1.50;1.20;;;9.70;98.20;;;;;;4914658;29;20484;-83
2024/03/31 00:10:23;;;;;;;1.50;1.10;;;9.60;98.20;;;;;;4921992;29;20224;-84
2024/03/31 00:12:50;;;;;;;1.50;1.20;;;9.60;98.20;;;;;;4909900;29;20476;-83
2024/03/31 00:15:16;;;;;;;1.50;1.20;;;9.60;98.20;;;;;;4923069;29;20303;-84
2024/03/31 00:17:43;;;;;;;1.50;1.20;;;9.60;98.20;;;;;;4917738;29;20488;-84
2024/03/31 00:20:11;;;;;;;1.50;1.20;;;9.60;98.20;;;;;;4922601;29;20496;-84
2024/03/31 00:23:15;;;;;;;;;;;;;;;;;;;;;
2024/03/31 00:25:58;;;;;;;1.50;1.10;;;9.50;98.20;;;;;;4905340;29;20461;-85
2024/03/31 00:28:30;;;;;;;1.50;1.10;;;9.50;98.20;;;;;;4923673;29;20614;-86
2024/03/31 00:30:57;;;;;;;1.57;1.20;;;9.50;98.20;;;;;;4915045;29;20889;-86
2024/03/31 00:33:24;;;;;;;1.50;1.20;;;9.50;98.20;;;;;;4918624;29;20521;-83
2024/03/31 00:35:59;;;;;;;1.60;1.20;;;9.50;98.20;;;;;;4912619;29;20481;-84
2024/03/31 00:38:26;;;;;;;1.50;1.10;;;9.50;98.20;;;;;;4924692;29;20502;-84
2024/03/31 00:40:52;;;;;;;1.50;1.10;;;9.40;98.20;;;;;;4912984;29;20472;-84
2024/03/31 00:43:19;;;;;;;1.50;1.20;;;9.40;98.20;;;;;;4920633;29;20497;-85
2024/03/31 00:45:45;;;;;;;1.50;1.10;;;9.40;98.20;;;;;;4918256;29;20465;-84
2024/03/31 00:48:14;;;;;;;1.50;1.20;;;9.40;98.20;;;;;;4927278;29;20493;-85
2024/03/31 00:50:40;;;;;;;1.50;1.10;;;9.40;98.20;;;;;;4922669;29;20245;-84
2024/03/31 00:53:09;;;;;;;1.50;1.20;;;9.40;98.20;;;;;;4925842;29;20484;-85
2024/03/31 00:55:34;;;;;;;1.50;1.20;;;9.40;98.20;;;;;;4921727;29;20475;-85
2024/03/31 00:58:02;;;;;;;1.50;1.10;;;9.40;98.20;;;;;;4914495;29;20973;-86
2024/03/31 01:00:28;;;;;;;1.50;1.20;;;9.30;98.20;;;;;;4922022;29;20217;-86
2024/03/31 01:02:55;;;;;;;1.50;1.20;;;9.30;98.20;;;;;;4913329;29;20485;-85
2024/03/31 01:05:21;;;;;;;1.50;1.20;;;9.30;98.20;;;;;;4921634;29;20484;-86
2024/03/31 01:07:49;;;;;;;1.50;1.10;;;9.30;98.20;;;;;;4917328;29;20921;-87
2024/03/31 01:10:19;;;;;;;1.50;1.20;;;9.30;98.20;;;;;;4927705;29;20461;-86
2024/03/31 01:12:46;;;;;;;1.50;1.10;;;9.30;98.20;;;;;;4918705;29;20473;-85
2024/03/31 01:15:12;;;;;;;1.50;1.20;;;9.30;98.20;;;;;;4921314;29;20476;-84
2024/03/31 01:17:40;;;;;;;1.50;1.20;;;9.30;98.20;;;;;;4914876;29;20472;-86
2024/03/31 01:20:06;;;;;;;1.50;1.10;;;9.30;98.20;;;;;;4924922;29;20536;-86
2024/03/31 01:22:40;;;;;;;1.50;1.10;;;9.30;98.20;;;;;;4921786;29;20557;-85
2024/03/31 01:25:07;;;;;;;1.50;1.10;;;9.30;98.20;;;;;;4925210;29;20471;-87
2024/03/31 01:27:34;;;;;;;1.50;1.20;;;9.30;98.20;;;;;;4913786;29;20568;-86
2024/03/31 01:30:00;;;;;;;1.50;1.10;;;9.30;98.20;;;;;;4922132;29;20567;-84
2024/03/31 01:32:27;;;;;;;1.50;1.30;;;9.30;98.20;;;;;;4915168;29;20515;-84
2024/03/31 01:34:53;;;;;;;1.50;1.17;;;9.30;98.20;;;;;;4924403;29;20243;-84
2024/03/31 01:38:07;;;;;;;1.50;1.20;;;9.30;98.20;;;;;;4920372;29;20858;-84
2024/03/31 01:40:34;;;;;;;1.50;1.10;;;9.30;98.20;;;;;;4916626;29;20220;-85
2024/03/31 01:43:01;;;;;;;1.50;1.17;;;9.30;98.20;;;;;;4911170;29;20537;-84
2024/03/31 01:45:27;;;;;;;1.50;1.17;;;9.20;98.20;;;;;;4922053;29;20464;-85
2024/03/31 01:47:54;;;;;;;1.50;1.20;;;9.20;98.20;;;;;;4913264;29;20485;-85
2024/03/31 01:50:20;;;;;;;1.50;1.17;;;9.20;98.20;;;;;;4925419;29;20223;-85
2024/03/31 01:52:47;;;;;;;1.50;1.20;;;9.20;98.20;;;;;;4915227;29;20487;-85
2024/03/31 01:55:16;;;;;;;1.50;1.20;;;9.20;98.20;;;;;;4917423;29;20515;-84
2024/03/31 01:57:44;;;;;;;1.50;1.10;;;9.20;98.20;;;;;;4912156;29;20480;-86
2024/03/31 02:00:11;;;;;;;1.50;1.20;;;9.20;98.20;;;;;;4926350;29;20493;-85
2024/03/31 02:02:38;;;;;;;1.50;1.20;;;9.20;98.20;;;;;;4916147;29;20480;-85
2024/03/31 02:05:08;;;;;;;1.50;1.20;;;9.20;98.20;;;;;;4927370;29;20523;-85
2024/03/31 02:07:35;;;;;;;1.50;1.20;;;9.20;98.20;;;;;;4920624;28;20523;-84
2024/03/31 02:10:00;;;;;;;1.50;1.20;;;9.10;98.20;;;;;;4927224;29;20511;-85
2024/03/31 02:12:27;;;;;;;1.50;1.20;;;9.10;98.20;;;;;;4923755;29;20488;-85
2024/03/31 02:14:55;;;;;;;1.50;1.20;;;9.10;98.20;;;;;;4925270;29;20469;-85
2024/03/31 02:17:21;;;;;;;1.50;1.20;;;9.10;98.20;;;;;;4919190;29;20480;-85
2024/03/31 02:19:48;;;;;;;1.50;1.10;;;9.10;98.20;;;;;;4926690;29;20487;-85
2024/03/31 02:22:18;;;;;;;1.50;1.20;;;9.20;98.20;;;;;;4926864;29;20471;-85
2024/03/31 02:24:44;;;;;;;1.50;1.20;;;9.10;98.20;;;;;;4925124;29;20469;-85
2024/03/31 02:27:13;;;;;;;1.50;1.20;;;9.10;98.20;;;;;;4923700;29;20475;-85
2024/03/31 02:29:40;;;;;;;1.50;1.10;;;9.10;98.20;;;;;;4929373;29;20472;-85
2024/03/31 02:32:08;;;;;;;1.50;1.20;;;9.20;98.20;;;;;;4920371;29;20539;-84
2024/03/31 02:34:34;;;;;;;1.50;1.10;;;9.20;98.20;;;;;;4927717;29;20510;-83
2024/03/31 02:40:12;;;;;;;1.50;1.20;;;9.20;98.20;;;;;;4894856;29;20460;-84
2024/03/31 02:42:38;;;;;;;1.50;1.20;;;9.30;98.20;;;;;;4918261;29;20476;-84
2024/03/31 02:45:05;;;;;;;1.50;1.20;;;9.30;98.20;;;;;;4926939;29;20524;-84
2024/03/31 02:47:33;;;;;;;1.50;1.30;;;9.30;98.20;;;;;;4919746;29;20488;-84
2024/03/31 02:50:00;;;;;;;1.50;1.10;;;9.30;98.20;;;;;;4921021;29;20472;-84
2024/03/31 02:52:26;;;;;;;1.50;1.10;;;9.40;98.20;;;;;;4923133;29;20551;-86
2024/03/31 02:54:53;;;;;;;1.50;1.20;;;9.40;98.20;;;;;;4925604;29;20477;-84
2024/03/31 02:57:19;;;;;;;1.50;1.10;;;9.40;98.20;;;;;;4916783;29;20947;-84
2024/03/31 02:59:46;;;;;;;1.50;1.10;;;9.40;98.20;;;;;;4922782;29;21040;-84
2024/03/31 03:02:13;;;;;;;1.50;1.20;;;9.50;98.20;;;;;;4919244;29;20480;-84
2024/03/31 03:04:43;;;;;;;1.50;1.20;;;9.50;98.20;;;;;;4920523;29;20995;-85
2024/03/31 03:10:17;;;;;;;1.50;1.10;;;9.50;98.20;;;;;;4900519;29;20834;-84
2024/03/31 03:13:25;;;;;;;1.50;1.10;;;9.50;98.20;;;;;;4813154;29;20492;-85
2024/03/31 03:16:46;;;;;;;2.03;1.67;;;9.50;98.20;;;;;;4814869;29;20464;-85
2024/03/31 03:19:12;;;;;;;1.50;1.20;;;9.50;98.20;;;;;;4791360;29;21074;-85
2024/03/31 03:31:08;;;;;;;1.50;1.10;;;9.60;98.20;;;;;;4167888;27;20556;-84
2024/03/31 03:33:34;;;;;;;1.50;1.10;;;9.60;98.20;;;;;;4909883;29;20464;-85
2024/03/31 03:42:19;;;;;;;1.50;1.10;;;9.60;98.20;;;;;;4889395;29;20522;-84
2024/03/31 03:45:22;;;;;;;1.50;1.10;;;9.60;98.20;;;;;;4896448;29;20894;-85
2024/03/31 03:48:08;;;;;;;;;;;;;;;;;;;;;
2024/03/31 03:54:08;;;;;;;1.50;1.20;;;9.60;98.20;;;;;;4830616;29;21078;-86
2024/03/31 03:56:57;;;;;;;1.50;1.10;;;9.60;98.20;;;;;;4903022;29;20483;-88
2024/03/31 03:59:23;;;;;;;1.50;1.20;;;9.60;98.20;;;;;;4896723;29;20860;-84
2024/03/31 04:01:50;;;;;;;1.50;1.20;;;9.60;98.20;;;;;;4903737;29;20481;-84
2024/03/31 04:04:17;;;;;;;1.50;1.30;;;9.60;98.20;;;;;;4910212;29;20205;-85
2024/03/31 04:06:45;;;;;;;1.50;1.00;;;9.60;98.20;;;;;;4900979;29;20560;-84
2024/03/31 04:09:11;;;;;;;1.50;1.20;;;9.60;98.20;;;;;;4906717;29;20537;-85
2024/03/31 04:11:38;;;;;;;1.50;1.10;;;9.60;98.20;;;;;;4901656;29;20650;-86
2024/03/31 04:14:04;;;;;;;1.57;1.20;;;9.60;98.20;;;;;;4908072;29;20213;-84
2024/03/31 04:16:31;;;;;;;1.50;1.20;;;9.50;98.20;;;;;;4899187;29;20527;-85
2024/03/31 04:18:59;;;;;;;1.50;1.10;;;9.60;98.20;;;;;;4908425;29;20604;-84
2024/03/31 04:21:28;;;;;;;1.50;1.10;;;9.60;98.20;;;;;;4896675;29;20551;-85
2024/03/31 04:23:54;;;;;;;1.50;1.10;;;9.60;98.20;;;;;;4908679;29;20462;-85
2024/03/31 04:26:50;;;;;;;1.50;1.20;;;9.60;98.20;;;;;;4901641;29;20548;-85
2024/03/31 04:29:16;;;;;;;1.50;1.17;;;9.60;98.20;;;;;;4908186;29;20466;-85
2024/03/31 04:32:01;;;;;;;2.43;2.23;;;9.50;98.20;;;;;;4900208;29;20500;-85
2024/03/31 04:35:06;;;;;;;1.50;1.10;;;9.60;98.20;;;;;;4904869;29;20545;-84
2024/03/31 04:38:15;;;;;;;1.50;1.10;;;9.60;98.20;;;;;;4905237;29;20559;-84
2024/03/31 04:40:55;;;;;;;1.50;1.10;;;9.50;98.20;;;;;;4896898;29;20842;-84
2024/03/31 04:43:20;;;;;;;1.50;1.20;;;9.50;98.20;;;;;;4886358;29;20473;-84
2024/03/31 04:45:47;;;;;;;1.50;1.20;;;9.60;98.20;;;;;;4890719;29;20913;-85
2024/03/31 04:48:14;;;;;;;1.50;1.10;;;9.50;98.20;;;;;;4912965;29;20305;-85
2024/03/31 04:50:47;;;;;;;1.50;1.10;;;9.50;98.20;;;;;;4902234;29;20484;-87
2024/03/31 04:53:15;;;;;;;1.60;1.27;;;9.60;98.20;;;;;;4891425;29;20477;-85
2024/03/31 04:55:42;;;;;;;1.50;1.10;;;9.60;98.20;;;;;;4893912;29;20488;-85
2024/03/31 04:58:15;;;;;;;1.50;1.20;;;9.60;98.20;;;;;;4902072;29;20784;-86
2024/03/31 05:00:42;;;;;;;1.50;1.10;;;9.60;98.20;;;;;;4890959;29;20465;-85
2024/03/31 05:03:07;;;;;;;1.50;1.10;;;9.60;98.20;;;;;;4901685;29;20493;-83
2024/03/31 05:05:39;;;;;;;1.50;1.10;;;9.60;98.20;;;;;;4902729;29;20481;-85
2024/03/31 05:08:22;;;;;;;1.50;1.20;;;9.70;98.20;;;;;;4900371;29;20292;-85
2024/03/31 05:11:18;;;;;;;1.50;1.10;;;9.70;98.20;;;;;;4898708;29;20485;-86
2024/03/31 05:14:05;;;;;;;1.50;1.03;;;9.70;98.20;;;;;;4902187;29;20856;-87
2024/03/31 05:16:50;;;;;;;1.50;1.10;;;9.70;98.20;;;;;;4883946;29;20506;-85
2024/03/31 05:19:40;;;;;;;1.50;1.10;;;9.70;98.20;;;;;;4901218;29;20745;-84
2024/03/31 05:22:12;;;;;;;1.50;1.10;;;9.70;98.20;;;;;;4901790;29;20534;-85
2024/03/31 05:24:39;;;;;;;1.63;1.43;;;9.70;98.20;;;;;;4895788;29;20981;-86
2024/03/31 05:27:26;;;;;;;1.50;1.10;;;9.80;98.20;;;;;;4898746;29;20533;-85
2024/03/31 05:30:03;;;;;;;1.50;1.10;;;9.80;98.20;;;;;;4898883;29;20501;-85
2024/03/31 05:35:20;;;;;;;1.50;1.10;;;9.90;98.20;;;;;;4886421;29;20465;-86
2024/03/31 05:38:30;;;;;;;3.20;2.90;;;9.90;98.20;;;;;;4902200;29;20493;-85
2024/03/31 05:41:05;;;;;;;1.50;1.10;;;9.90;98.20;;;;;;4843991;29;20648;-85
2024/03/31 05:46:40;;;;;;;1.50;1.10;;;10.00;98.20;;;;;;4813574;29;20494;-85
2024/03/31 05:49:06;;;;;;;1.50;1.10;;;10.00;98.20;;;;;;4895842;29;21055;-86
2024/03/31 05:51:42;;;;;;;1.50;1.10;;;10.00;98.20;;;;;;4904940;29;20471;-84
2024/03/31 05:54:08;;;;;;;1.50;1.10;;;10.00;98.20;;;;;;4907666;29;20468;-85
2024/03/31 05:59:37;;;;;;;1.50;1.10;;;10.10;98.20;;;;;;5113589;23;20496;-85
2024/03/31 06:02:29;;;;;;;1.50;1.17;;;10.10;98.20;;;;;;4900418;29;20480;-84
2024/03/31 06:05:03;;;;;;;5.83;5.43;;;10.10;98.20;;;;;;4909561;29;20465;-85
2024/03/31 06:07:55;;;;;;;1.50;1.10;;;10.10;98.20;;;;;;4891208;29;20476;-85
2024/03/31 06:10:27;;;;;;;1.50;1.20;;;10.10;98.20;;;;;;4903851;29;20468;-86
2024/03/31 06:12:53;;;;;;;1.50;1.20;;;10.10;98.20;;;;;;4900024;29;20518;-87
2024/03/31 06:15:22;;;;;;;1.83;1.63;;;10.10;98.20;;;;;;4906192;29;20933;-87
2024/03/31 06:17:48;;;;;;;1.50;1.10;;;10.10;98.20;;;;;;4901679;29;21034;-85
2024/03/31 06:20:21;;;;;;;1.50;1.10;;;10.10;98.20;;;;;;4904359;29;20469;-87
2024/03/31 06:22:59;;;;;;;1.50;1.10;;;10.10;98.20;;;;;;4897853;29;20493;-85
2024/03/31 06:25:48;;;;;;;1.50;1.20;;;10.10;98.20;;;;;;4905107;29;20461;-85
2024/03/31 06:28:27;;;;;;;1.50;1.10;;;10.10;98.20;;;;;;4873205;29;20493;-85
2024/03/31 06:31:10;;;;;;;1.50;1.30;;;10.20;98.20;;;;;;4890403;29;20475;-87
2024/03/31 06:42:09;;;;;;;1.50;1.10;;;10.40;98.20;;;;;;4891710;29;21538;-85
2024/03/31 06:44:38;;;;;;;3.40;2.37;;;10.50;98.20;;;;;;4906627;29;20502;-86
2024/03/31 06:47:25;;;;;;;1.50;1.17;;;10.70;98.20;;;;;;4896133;29;20580;-85
2024/03/31 06:49:53;;;;;;;1.50;1.00;;;10.90;98.20;;;;;;4907417;29;20478;-83
2024/03/31 06:52:21;;;;;;;1.50;1.10;;;11.10;98.20;;;;;;4897921;29;20502;-86
2024/03/31 06:54:47;;;;;;;1.50;1.10;;;11.40;98.20;;;;;;4904971;29;20635;-86
2024/03/31 06:57:17;;;;;;;1.60;1.33;;;11.50;98.20;;;;;;4893543;29;20526;-84
2024/03/31 06:59:49;;;;;;;1.57;1.20;;;11.60;98.20;;;;;;4896240;29;20466;-85
2024/03/31 07:02:45;;;;;;;1.50;1.10;;;11.70;98.20;;;;;;4891621;29;20523;-86
2024/03/31 07:05:13;;;;;;;2.23;1.67;;;11.70;98.20;;;;;;4900899;29;20472;-84
2024/03/31 07:08:26;;;;;;;;;;;;;;;;;;;;;
2024/03/31 07:11:01;;;;;;;1.50;1.10;;;11.50;98.20;;;;;;4856438;29;20950;-85
2024/03/31 07:13:30;;;;;;;1.50;1.10;;;11.50;98.20;;;;;;4896508;29;20468;-85
2024/03/31 07:15:56;;;;;;;1.50;1.10;;;11.50;98.20;;;;;;4889667;29;20466;-85
2024/03/31 07:18:24;;;;;;;1.50;1.00;;;11.60;98.20;;;;;;4899915;29;20496;-85
2024/03/31 07:20:51;;;;;;;1.53;1.00;;;11.90;98.20;;;;;;4878140;29;20910;-84
2024/03/31 07:23:29;;;;;;;1.87;1.60;;;12.10;98.20;;;;;;4883461;29;21005;-85
2024/03/31 07:27:01;;;;;;;3.00;2.80;;;12.20;98.20;;;;;;4881641;29;20577;-84
2024/03/31 07:39:04;;;;;;;1.50;1.00;;;12.30;98.20;;;;;;4856839;23;21047;-86
2024/03/31 07:41:30;;;;;;;1.50;1.00;;;12.40;98.20;;;;;;4887841;29;20585;-85
2024/03/31 07:43:58;;;;;;;1.50;1.00;;;12.50;98.20;;;;;;4899447;29;20556;-85
2024/03/31 07:46:31;;;;;;;1.50;1.00;;;12.50;98.20;;;;;;4888038;29;20233;-86
2024/03/31 07:48:59;;;;;;;1.50;1.10;;;12.50;98.20;;;;;;4886675;29;21037;-84
2024/03/31 07:51:30;;;;;;;1.50;1.00;;;12.60;98.20;;;;;;4868953;29;20518;-85
2024/03/31 07:54:00;;;;;;;1.50;1.00;;;12.60;98.20;;;;;;4876978;29;20482;-84
2024/03/31 07:59:18;;;;;;;1.50;1.00;;;12.70;98.20;;;;;;4900971;23;20501;-84
2024/03/31 08:01:44;;;;;;;1.50;1.00;;;12.70;98.20;;;;;;4882677;29;21008;-84
2024/03/31 08:04:13;;;;;;;1.50;1.00;;;12.90;98.20;;;;;;4897569;29;21053;-85
2024/03/31 08:09:55;;;;;;;;;;;;;;;;;;;;;
2024/03/31 08:12:38;;;;;;;1.57;1.00;;;13.60;98.20;;;;;;4890083;29;20480;-83
2024/03/31 08:18:28;;;;;;;1.50;1.00;;;14.20;98.20;;;;;;4776937;29;20516;-84
2024/03/31 08:24:51;;;;;;;1.50;1.00;;;14.60;98.20;;;;;;4829133;29;21034;-83
2024/03/31 08:46:11;;;;;;;2.80;1.77;;;15.60;98.20;;;;;;4753507;29;20477;-85
2024/03/31 09:02:21;;;;;;;1.50;0.90;;;16.10;98.20;;;;;;4882879;29;20474;-82
2024/03/31 09:12:10;;;;;;;1.60;1.20;;;16.70;98.20;;;;;;4796670;29;20487;-83
2024/03/31 09:15:04;;;;;;;1.50;0.90;;;16.90;98.20;;;;;;4875799;29;20470;-84
2024/03/31 09:17:40;;;;;;;1.50;0.90;;;16.90;98.20;;;;;;4838158;29;20490;-83
2024/03/31 09:29:36;;;;;;;1.50;0.90;;;17.20;98.20;;;;;;4812512;29;20497;-86
2024/03/31 09:32:53;;;;;;;2.40;2.20;;;17.20;98.20;;;;;;4872441;29;20485;-82
2024/03/31 09:35:36;;;;;;;1.50;1.10;;;17.30;98.20;;;;;;4860635;29;20545;-82
2024/03/31 09:38:31;;;;;;;1.50;0.90;;;17.40;98.20;;;;;;4872368;29;20756;-83
2024/03/31 09:41:03;;;;;;;1.50;0.90;;;17.50;98.20;;;;;;4866888;29;20466;-82
2024/03/31 09:47:33;;;;;;;1.50;1.00;;;18.10;98.20;;;;;;4828491;29;20488;-83
2024/03/31 09:50:28;;;;;;;2.47;2.03;;;18.30;98.20;;;;;;4870241;29;20514;-82
2024/03/31 09:56:31;;;;;;;1.50;0.90;;;18.40;98.20;;;;;;4859563;29;20465;-83
2024/03/31 09:59:08;;;;;;;1.50;0.90;;;18.60;98.20;;;;;;4905327;23;20504;-82
2024/03/31 10:02:02;;;;;;;1.50;0.90;;;18.70;98.20;;;;;;4891520;28;21677;-82
2024/03/31 10:04:36;;;;;;;1.50;0.90;;;18.90;98.20;;;;;;4897104;29;20476;-82
2024/03/31 10:07:19;;;;;;;1.50;0.90;;;19.30;98.10;;;;;;4892863;28;20492;-83
2024/03/31 10:09:48;;;;;;;1.50;0.90;;;19.50;97.00;;;;;;4878493;29;20594;-83
2024/03/31 10:12:20;;;;;;;1.50;0.90;;;19.60;94.90;;;;;;4889106;29;20516;-82
2024/03/31 10:14:51;;;;;;;1.90;1.63;;;19.60;94.30;;;;;;4881187;29;20485;-83
2024/03/31 10:17:22;;;;;;;1.47;0.90;;;19.40;93.80;;;;;;4888999;29;20498;-83
2024/03/31 10:19:50;;;;;;;1.50;0.90;;;19.30;94.60;;;;;;4880852;29;20597;-80
2024/03/31 10:22:17;;;;;;;1.50;0.90;;;19.20;94.40;;;;;;4886055;29;20519;-83
2024/03/31 10:24:48;;;;;;;1.50;0.90;;;19.10;94.90;;;;;;4884874;29;20549;-82
2024/03/31 10:27:37;;;;;;;1.50;0.90;;;19.20;94.50;;;;;;4885574;29;20492;-82
2024/03/31 10:30:10;;;;;;;1.50;0.90;;;19.20;94.80;;;;;;4878834;29;20993;-83
2024/03/31 10:32:47;;;;;;;1.50;0.90;;;19.30;95.00;;;;;;4891343;29;20480;-84
2024/03/31 10:35:25;;;;;;;1.50;1.00;;;19.40;93.60;;;;;;4877614;29;20473;-83
2024/03/31 10:40:41;;;;;;;1.50;0.90;;;19.30;92.60;;;;;;4869962;29;20564;-83
2024/03/31 10:43:21;;;;;;;1.50;0.90;;;19.40;92.10;;;;;;4898621;29;20502;-83
2024/03/31 10:46:01;;;;;;;1.63;1.37;;;19.60;92.70;;;;;;4868643;28;20484;-83
2024/03/31 10:48:35;;;;;;;1.50;0.90;;;19.80;90.00;;;;;;4901725;29;20504;-83
2024/03/31 10:54:35;;;;;;;1.50;0.90;;;20.50;88.50;;;;;;4887277;29;20462;-82
2024/03/31 10:57:06;;;;;;;1.50;0.90;;;20.70;87.10;;;;;;4883941;29;20484;-81
2024/03/31 10:59:34;;;;;;;1.47;0.90;;;20.70;86.20;;;;;;4881058;29;20557;-85
2024/03/31 11:02:14;;;;;;;1.50;0.90;;;20.60;84.90;;;;;;4884031;29;20476;-82
2024/03/31 11:04:42;;;;;;;1.50;1.00;;;20.30;84.70;;;;;;4884195;29;20482;-82
2024/03/31 11:07:11;;;;;;;1.43;0.90;;;20.30;85.80;;;;;;4879544;28;20557;-82
2024/03/31 11:09:39;;;;;;;1.47;0.90;;;20.50;85.10;;;;;;4877402;29;20466;-82
2024/03/31 11:12:06;;;;;;;1.50;0.90;;;20.80;86.10;;;;;;4878531;29;20706;-82
2024/03/31 11:14:33;;;;;;;1.43;0.90;;;21.10;83.80;;;;;;4880276;29;20773;-81
2024/03/31 11:17:00;;;;;;;1.47;0.83;;;21.30;82.80;;;;;;4880863;28;20571;-83
2024/03/31 11:19:29;;;;;;;1.47;0.90;;;21.50;82.60;;;;;;4881515;29;20496;-83
2024/03/31 11:21:56;;;;;;;1.50;0.90;;;21.70;84.80;;;;;;4881071;29;20910;-82
2024/03/31 11:24:24;;;;;;;1.50;0.90;;;21.80;82.80;;;;;;4885574;29;20477;-81
2024/03/31 11:26:51;;;;;;;1.47;0.90;;;21.60;82.00;;;;;;4879127;29;21027;-81
2024/03/31 11:29:18;;;;;;;1.97;1.60;;;21.50;81.70;;;;;;4883004;29;20569;-82
2024/03/31 11:31:45;;;;;;;1.47;0.90;;;21.10;79.10;;;;;;4875444;29;20579;-81
2024/03/31 11:34:13;;;;;;;1.47;0.90;;;21.00;80.30;;;;;;4886107;29;20562;-81
2024/03/31 11:36:42;;;;;;;1.50;0.90;;;20.80;79.70;;;;;;4875609;29;20492;-81
2024/03/31 11:39:08;;;;;;;1.47;0.90;;;20.60;80.90;;;;;;4888857;29;20502;-82
2024/03/31 11:41:35;;;;;;;1.50;0.90;;;20.50;81.80;;;;;;4876294;29;20552;-80
2024/03/31 11:44:02;;;;;;;1.43;0.90;;;20.50;81.60;;;;;;4892465;29;20534;-83
2024/03/31 11:46:28;;;;;;;1.43;0.90;;;20.30;81.30;;;;;;4877467;29;20493;-83
2024/03/31 11:48:59;;;;;;;1.50;0.90;;;20.20;82.30;;;;;;4895478;29;20787;-84
2024/03/31 11:51:25;;;;;;;1.60;1.43;;;20.10;82.50;;;;;;4877895;29;20563;-82
2024/03/31 11:53:54;;;;;;;1.40;0.90;;;20.20;84.10;;;;;;4895049;29;20479;-81
2024/03/31 11:56:21;;;;;;;1.47;0.90;;;20.40;82.40;;;;;;4883343;29;20476;-82
2024/03/31 11:58:48;;;;;;;1.47;0.90;;;20.60;82.90;;;;;;4897643;29;20908;-82
2024/03/31 12:01:18;;;;;;;1.50;0.90;;;20.90;81.50;;;;;;4869196;29;20890;-81
2024/03/31 12:03:55;;;;;;;1.47;0.90;;;21.30;79.00;;;;;;4894088;29;20482;-82
2024/03/31 12:06:22;;;;;;;1.43;0.90;;;21.50;77.90;;;;;;4876079;29;20483;-81
2024/03/31 12:08:50;;;;;;;1.43;0.90;;;21.80;77.70;;;;;;4894026;29;21019;-81
2024/03/31 12:11:19;;;;;;;1.50;0.90;;;21.90;75.90;;;;;;4867898;29;20477;-79
2024/03/31 12:13:48;;;;;;;1.47;0.90;;;21.70;75.30;;;;;;4895059;29;20685;-80
2024/03/31 12:16:14;;;;;;;1.50;0.90;;;21.60;75.80;;;;;;4871770;29;20523;-81
2024/03/31 12:18:41;;;;;;;1.47;0.90;;;21.70;76.20;;;;;;4894712;29;20506;-82
2024/03/31 12:21:07;;;;;;;1.43;0.90;;;21.80;76.50;;;;;;4866887;29;22294;-81
2024/03/31 12:23:34;;;;;;;1.43;0.87;;;21.80;75.60;;;;;;4893122;29;20477;-81
2024/03/31 12:26:00;;;;;;;1.47;0.90;;;21.90;75.90;;;;;;4866336;29;20218;-83
2024/03/31 12:28:29;;;;;;;1.50;0.90;;;21.90;75.30;;;;;;4894928;29;20604;-82
2024/03/31 12:30:56;;;;;;;1.47;0.80;;;21.80;76.20;;;;;;4865402;29;20471;-81
2024/03/31 12:33:23;;;;;;;1.43;0.90;;;21.60;75.30;;;;;;4898532;29;20485;-82
2024/03/31 12:35:49;;;;;;;1.50;0.90;;;21.50;77.40;;;;;;4860072;29;20594;-80
2024/03/31 12:38:17;;;;;;;1.43;0.90;;;21.30;78.20;;;;;;4900832;29;20508;-80
2024/03/31 12:40:43;;;;;;;1.50;0.90;;;21.20;77.60;;;;;;4874134;29;20557;-82
2024/03/31 12:43:10;;;;;;;1.47;0.90;;;21.00;77.10;;;;;;4889507;29;20486;-82
2024/03/31 12:45:38;;;;;;;1.43;0.90;;;20.80;78.50;;;;;;4870043;29;21013;-81
2024/03/31 12:48:06;;;;;;;1.47;0.87;;;20.70;79.70;;;;;;4890549;29;20595;-79
2024/03/31 12:50:32;;;;;;;1.47;0.90;;;20.60;80.20;;;;;;4869959;29;20466;-80
2024/03/31 12:53:07;;;;;;;1.40;0.90;;;20.40;81.60;;;;;;4889908;29;20492;-81
2024/03/31 12:55:37;;;;;;;1.43;0.90;;;20.30;82.40;;;;;;4871379;29;20912;-83
2024/03/31 12:58:05;;;;;;;1.50;0.90;;;20.10;82.00;;;;;;4890619;29;20701;-83
2024/03/31 13:00:31;;;;;;;1.60;1.37;;;20.10;83.10;;;;;;4875552;29;20594;-80
2024/03/31 13:02:59;;;;;;;1.47;0.90;;;20.00;83.80;;;;;;4887448;29;20489;-81
2024/03/31 13:05:25;;;;;;;1.50;0.90;;;19.90;83.70;;;;;;4872982;29;20556;-82
2024/03/31 13:07:52;;;;;;;1.43;0.90;;;19.80;83.50;;;;;;4889564;29;20495;-82
2024/03/31 13:10:19;;;;;;;1.50;0.90;;;19.70;83.40;;;;;;4873279;29;20553;-81
2024/03/31 13:12:46;;;;;;;1.50;0.90;;;19.60;83.90;;;;;;4891280;29;20480;-81
2024/03/31 13:15:13;;;;;;;1.50;0.90;;;19.60;84.90;;;;;;4870865;29;20836;-82
2024/03/31 13:17:40;;;;;;;1.50;0.90;;;19.60;83.70;;;;;;4888992;28;20544;-81
2024/03/31 13:20:08;;;;;;;1.47;0.90;;;19.60;83.70;;;;;;4871836;29;20490;-82
2024/03/31 13:22:36;;;;;;;1.60;1.20;;;19.70;84.60;;;;;;4887923;29;21488;-81
2024/03/31 13:25:03;;;;;;;1.50;0.90;;;19.90;82.10;;;;;;4869177;29;20473;-82
2024/03/31 13:27:30;;;;;;;1.47;0.90;;;20.10;82.40;;;;;;4875740;29;20489;-83
2024/03/31 13:29:56;;;;;;;1.40;0.90;;;20.20;81.70;;;;;;4873862;29;20470;-81
2024/03/31 13:32:23;;;;;;;1.47;0.90;;;20.20;82.20;;;;;;4884362;29;20599;-81
2024/03/31 13:34:49;;;;;;;1.47;0.90;;;20.20;82.40;;;;;;4879272;29;20509;-81
2024/03/31 13:37:18;;;;;;;1.47;0.90;;;20.20;82.30;;;;;;4878042;29;20511;-82
2024/03/31 13:39:43;;;;;;;1.47;0.90;;;20.30;82.30;;;;;;4880033;29;20701;-81
2024/03/31 13:42:10;;;;;;;1.43;0.90;;;20.40;82.40;;;;;;4880233;29;20575;-80
2024/03/31 13:44:36;;;;;;;1.50;0.90;;;20.40;82.00;;;;;;4878638;29;20214;-81
2024/03/31 13:47:03;;;;;;;1.43;0.90;;;20.50;81.40;;;;;;4881280;29;20488;-81
2024/03/31 13:49:29;;;;;;;1.47;0.83;;;20.60;82.50;;;;;;4882729;29;20329;-81
2024/03/31 13:51:56;;;;;;;1.47;0.90;;;20.90;82.80;;;;;;4872051;29;21032;-81
2024/03/31 13:54:24;;;;;;;1.50;0.90;;;21.10;81.50;;;;;;4879544;29;20221;-81
2024/03/31 13:56:50;;;;;;;1.43;0.90;;;21.30;81.30;;;;;;4878373;29;20509;-81
2024/03/31 13:59:17;;;;;;;1.47;0.90;;;21.30;81.20;;;;;;4888135;29;20493;-79
2024/03/31 14:01:44;;;;;;;1.50;0.90;;;21.30;79.90;;;;;;4881452;29;20572;-81
2024/03/31 14:04:10;;;;;;;1.47;0.90;;;21.10;80.70;;;;;;4893688;29;20502;-79
2024/03/31 14:06:37;;;;;;;1.50;0.90;;;20.90;81.70;;;;;;4876005;29;20482;-78
2024/03/31 14:09:05;;;;;;;1.47;0.90;;;20.70;80.40;;;;;;4888901;29;20497;-81
2024/03/31 14:11:33;;;;;;;1.40;0.90;;;20.60;81.20;;;;;;4875557;29;20532;-81
2024/03/31 14:13:59;;;;;;;1.47;0.90;;;20.60;81.70;;;;;;4891822;29;20865;-81
2024/03/31 14:16:26;;;;;;;1.97;1.57;;;20.50;80.70;;;;;;4871641;29;20536;-81
2024/03/31 14:18:52;;;;;;;1.50;0.90;;;20.30;81.60;;;;;;4886920;29;21081;-78
2024/03/31 14:21:19;;;;;;;1.43;0.90;;;20.20;82.00;;;;;;4870064;29;20480;-81
2024/03/31 14:23:45;;;;;;;1.47;0.90;;;20.10;82.40;;;;;;4897268;29;20481;-82
2024/03/31 14:26:12;;;;;;;1.57;1.27;;;20.10;82.90;;;;;;4871687;29;21013;-81
2024/03/31 14:28:40;;;;;;;1.47;0.90;;;20.10;83.90;;;;;;4894535;29;20257;-80
2024/03/31 14:31:07;;;;;;;1.50;0.90;;;20.10;84.30;;;;;;4874131;29;20498;-81
2024/03/31 14:33:33;;;;;;;20.53;1.73;;;20.00;83.20;;;;;;4898085;29;20462;-78
2024/03/31 14:36:00;;;;;;;1.40;0.90;;;20.00;82.30;;;;;;4869201;29;20489;-81
2024/03/31 14:38:26;;;;;;;1.50;0.90;;;20.00;81.80;;;;;;4907681;29;20229;-80
2024/03/31 14:40:53;;;;;;;1.47;0.90;;;19.90;81.60;;;;;;4869563;29;20586;-81
2024/03/31 14:43:19;;;;;;;1.47;0.90;;;19.90;82.10;;;;;;4889086;29;20477;-83
2024/03/31 14:45:47;;;;;;;1.50;1.20;;;19.80;82.30;;;;;;4874383;29;20474;-79
2024/03/31 14:48:13;;;;;;;1.47;0.90;;;19.70;83.20;;;;;;4903869;29;20238;-79
2024/03/31 14:50:41;;;;;;;1.43;0.90;;;19.70;83.60;;;;;;4876050;29;20474;-81
2024/03/31 14:53:08;;;;;;;2.90;2.60;;;19.60;84.40;;;;;;4886509;29;20242;-80
2024/03/31 14:55:35;;;;;;;1.47;0.90;;;19.60;84.70;;;;;;4869007;29;20485;-81
2024/03/31 14:58:02;;;;;;;1.50;0.90;;;19.50;84.90;;;;;;4868083;29;20533;-82
2024/03/31 15:00:29;;;;;;;1.47;0.90;;;19.50;85.10;;;;;;4873523;29;20494;-82
2024/03/31 15:02:56;;;;;;;1.50;1.00;;;19.50;85.80;;;;;;4894305;29;20493;-82
2024/03/31 15:05:24;;;;;;;1.43;0.90;;;19.50;86.10;;;;;;4872043;29;21021;-83
2024/03/31 15:07:50;;;;;;;1.43;0.90;;;19.60;86.00;;;;;;4890903;29;20499;-81
2024/03/31 15:10:16;;;;;;;1.43;0.90;;;19.60;85.80;;;;;;4870886;29;20474;-80
2024/03/31 15:12:42;;;;;;;1.40;0.90;;;19.60;85.90;;;;;;4890518;29;20240;-80
2024/03/31 15:15:09;;;;;;;1.47;0.90;;;19.60;86.70;;;;;;4870298;29;20906;-79
2024/03/31 15:17:36;;;;;;;1.43;0.90;;;19.60;86.70;;;;;;4890315;29;20260;-85
2024/03/31 15:20:05;;;;;;;1.43;0.90;;;19.60;86.20;;;;;;4875157;29;21366;-81
2024/03/31 15:22:31;;;;;;;1.43;0.90;;;19.70;85.40;;;;;;4872034;29;20489;-79
2024/03/31 15:24:58;;;;;;;1.47;0.90;;;19.70;85.10;;;;;;4873700;29;20993;-81